Weather observations for the past three days for
San Diego, North Island, Naval Air Station
Metric (Imperial)
Date Time (pdt) Wind (kph) Vis. (km) Weather Sky Cond. Temperature (ºC) Relative Humidity Wind Chill (°C) Heat Index (°C) Pressure Precipitation (cm)
Air Dwpt 6 hour altimeter (cm) sea level (mb) 1 hr 3 hr 6 hr
Max. Min.
03 21:52 W 11 16.09 Mostly Cloudy FEW030 BKN055 17.2 10.6 65% 76.15 1015.3
03 20:52 W 9 16.09 Mostly Cloudy FEW030 BKN055 17.2 11.1 68% 76.1 1014.3
03 19:52 W 11 16.09 Mostly Cloudy FEW030 BKN055 17.8 11.1 65% 76.07 1014.3
03 18:52 W 9 16.09 Mostly Cloudy FEW030 BKN055 BKN250 17.8 10.6 63% 76.07 1014.0
03 17:52 W 15 16.09 Mostly Cloudy BKN048 18.9 10 56% 76.05 1013.7
03 16:52 W 15 16.09 Mostly Cloudy SCT033 BKN046 18.9 10 20 18.9 56% 76 1013.1
03 15:52 W 15 16.09 Partly Cloudy SCT048 20 10 53% 76 1013.2
03 14:52 W 15 16.09 Mostly Cloudy BKN047 20 9.4 51% 76.02 1013.6
03 13:52 W 19 16.09 Mostly Cloudy BKN041 19.4 10.6 57% 76.07 1014.0
03 12:52 W 19 16.09 Overcast BKN040 OVC047 18.9 11.1 61% 76.07 1014.3
03 11:52 W 19 G 30 16.09 Overcast FEW020 OVC042 19.4 11.1 59% 76.1 1014.3
03 10:52 W 15 16.09 Mostly Cloudy FEW030 BKN042 19.4 11.1 20 16.7 59% 76.07 1014.3
03 09:52 NW 13 16.09 Mostly Cloudy FEW010 BKN039 18.3 11.1 63% 76.07 1014.3
03 08:52 Calm 16.09 Overcast FEW010 OVC036 17.8 11.1 65% 76.07 1014.0
03 07:52 NW 9 16.09 Overcast FEW010 OVC030 17.2 11.1 68% 76.07 1014.0
03 06:52 NW 13 16.09 Overcast OVC033 17.2 11.7 70% 76.02 1013.6
03 05:52 NW 17 16.09 Overcast OVC029 16.7 12.2 75% 75.97 1012.7
03 04:52 NW 13 16.09 Overcast OVC025 16.7 12.2 17.2 16.1 75% 75.95 1012.6
03 03:52 NW 11 16.09 Overcast OVC021 16.7 12.2 75% 75.97 1012.7
03 02:52 NW 13 16.09 Overcast OVC019 17.2 12.8 76% 75.95 1012.6
03 00:52 W 6 16.09 Overcast OVC021 17.2 12.8 76% 76.02 1013.5
02 23:52 Calm 16.09 Overcast OVC018 16.7 12.8 78% 76.05 1013.8
02 22:52 W 7 16.09 Mostly Cloudy BKN016 16.1 12.8 18.9 16.1 81% 76.02 1013.6
02 21:52 W 11 16.09 Mostly Cloudy BKN014 BKN250 16.1 12.8 81% 76 1013.0
02 20:52 NW 13 16.09 Partly Cloudy FEW015 SCT250 16.7 12.8 78% 75.9 1011.9
02 19:52 NW 17 16.09 Mostly Cloudy SCT015 BKN250 16.7 12.8 78% 75.84 1011.1
02 18:52 NW 17 16.09 Mostly Cloudy SCT015 BKN250 17.2 12.8 76% 75.87 1011.4
02 17:52 NW 17 16.09 Mostly Cloudy SCT016 BKN250 17.8 12.8 73% 75.84 1011.0
02 16:52 NW 15 16.09 Mostly Cloudy SCT016 BKN250 18.9 12.8 20.6 17.8 68% 75.84 1011.0
02 15:52 NW 22 16.09 Mostly Cloudy BKN016 BKN250 19.4 13.3 68% 75.87 1011.3
02 14:52 W 24 16.09 Mostly Cloudy BKN017 BKN250 20 13.9 68% 75.95 1012.4
02 13:52 W 20 16.09 Mostly Cloudy FEW012 BKN018 BKN250 19.4 13.9 71% 76 1013.0
02 12:52 NW 22 16.09 Mostly Cloudy FEW013 BKN021 BKN250 20 13.9 68% 75.97 1012.9
02 11:52 W 19 16.09 Overcast FEW010 OVC018 18.9 14.4 75% 76.05 1013.7
02 10:52 W 17 16.09 Overcast FEW009 OVC016 17.8 14.4 17.8 16.7 81% 76.1 1014.3
02 09:52 NW 19 11.27 Overcast FEW007 OVC016 17.2 14.4 84% 76.12 1014.7
02 08:52 NW 9 16.09 Overcast OVC015 17.8 13.9 78% 76.12 1014.7
02 07:52 NW 9 12.87 Overcast OVC013 17.2 13.9 81% 76.1 1014.4
02 06:52 NW 7 14.48 Overcast OVC012 17.2 13.9 81% 76.07 1014.0
02 05:52 Calm 16.09 Overcast OVC012 16.7 13.9 84% 76.02 1013.6
02 04:52 Calm 16.09 Overcast OVC012 16.7 13.9 17.8 16.7 84% 76.02 1013.4
02 03:52 W 7 16.09 Overcast OVC014 16.7 13.3 80% 76 1013.2
02 02:52 W 9 16.09 Overcast OVC016 17.2 13.3 78% 76 1013.1
02 01:52 NW 13 16.09 Overcast OVC016 17.8 13.3 75% 76 1013.1
01 23:52 NW 11 16.09 Overcast OVC016 17.8 13.3 75% 76.05 1013.8
01 22:52 NW 11 16.09 Overcast OVC017 17.8 13.3 18.9 17.2 75% 76.05 1013.8
01 21:52 Vrbl 9 16.09 Mostly Cloudy BKN017 17.8 13.3 75% 76.05 1013.9
01 20:52 NW 6 16.09 Mostly Cloudy BKN018 17.2 13.3 78% 76.02 1013.5
01 19:52 NW 7 16.09 Mostly Cloudy BKN015 17.2 13.3 78% 76 1013.0
01 18:52 W 9 16.09 Partly Cloudy SCT018 17.2 13.3 78% 75.95 1012.6
01 17:52 W 11 16.09 A Few Clouds FEW020 18.3 12.8 70% 75.92 1012.2
01 16:52 W 15 16.09 Partly Cloudy SCT020 18.9 12.8 20 18.3 68% 75.92 1012.1
01 15:52 W 17 16.09 A Few Clouds FEW025 18.9 12.8 68% 75.95 1012.4
01 14:52 W 17 16.09 A Few Clouds FEW025 19.4 12.8 66% 75.97 1012.9
01 13:52 W 19 16.09 A Few Clouds FEW025 20 12.8 63% 76.02 1013.4
01 12:56 Calm 16.09 A Few Clouds FEW030 32.2 6.7 20% 30 75.74 1011.2
01 12:52 W 19 16.09 Fair CLR 19.4 12.2 63% 76.02 1013.5
01 11:52 W 15 16.09 A Few Clouds FEW025 19.4 12.2 63% 76.07 1014.1
01 10:52 S 11 16.09 Partly Cloudy SCT023 18.9 11.7 18.9 15.6 63% 76.1 1014.6
01 09:52 SW 9 16.09 Mostly Cloudy BKN021 17.2 11.1 68% 76.12 1014.9
01 08:52 S 7 16.09 Mostly Cloudy BKN021 17.2 11.1 68% 76.12 1014.8
01 07:52 Calm 16.09 Mostly Cloudy BKN022 16.7 11.7 73% 76.1 1014.6
01 06:52 SE 6 16.09 Mostly Cloudy BKN023 16.1 11.7 75% 76.07 1014.1
01 04:52 SW 6 12.87 Mostly Cloudy BKN023 15.6 13.3 15.6 13.9 86% 76.05 1013.6
01 03:52 Calm 12.87 Mostly Cloudy BKN023 15 12.8 87% 76.02 1013.3
01 02:52 Calm 12.87 Mostly Cloudy BKN018 15 13.3 90% 76 1013.0
01 01:52 Calm 12.87 Partly Cloudy SCT018 14.4 12.8 90% 76.02 1013.4
01 00:52 Calm 12.87 Mostly Cloudy BKN018 15 12.8 87% 76.05 1013.9
30 23:52 Calm 12.87 A Few Clouds FEW018 15 12.8 87% 76.05 1013.8
30 22:52 SW 6 14.48 A Few Clouds FEW018 15 12.2 18.3 15 83% 76.05 1013.8
Date Time (pdt) Wind (kph) Vis. (km) Weather Sky Cond. Air Dwpt Max. Min. Relative Humidity Wind Chill (°C) Heat Index (°C) altimeter (cm) sea level (mb) 1 hr 3 hr 6 hr
6 hour
Temperature (ºC) Pressure Precipitation (cm)